KCCY

Northeast Iowa Regional Airport

Charles City, Iowa, USA
METAR KCCY 231055Z AUTO 16007KT 5SM -RA FEW003 SCT030 BKN037 17/15 A3014 RMK AO2 P0003
Observed Flight Rules
May-23 @ 10:55 UTC (20 minutes ago) Marginal Visual Flight Rules
Wind Visibility Clouds Conditions
160° at 7 knots 5 miles
  • Few at 300' AGL
  • Scattered at 3,000' AGL
  • Broken at 3,700' AGL
  • Light Rain
Temperatures Readings Precipitation
Current 17°C / 63°F
Dewpoint 15°C / 59°F
Humidity 88%
Altimeter 30.14" Hg
Pressure 1021 hPa
Elevation 343
Current Rain 0.03
METAR KCCY 231055Z AUTO 16007KT 5SM -RA FEW003 SCT030 BKN037 17/15 A3014 RMK AO2 P0003
Observed Flight Rules
May-23 @ 10:55 UTC
(20 minutes ago)
MVFR
Wind Visibility
160° at 7 knots 5 miles
Clouds
  • Few at 300' AGL
  • Scattered at 3,000' AGL
  • Broken at 3,700' AGL
Conditions
  • Light Rain
Temperature Dewpoint
17°C / 63°F 15°C / 59°F
Humidity Altimeter Pressure
88% 30.14" Hg 1021 hPa
Current Rain
0.03